Time;durP1;ratioP1;P1;durP2;ratioP2;P2;SDS_P1;SDS_P2;PMS_P1;PMS_P2;Temp;Humidity;BMP_temperature;BMP_pressure;BME280_temperature;BME280_humidity;BME280_pressure;Samples;Min_cycle;Max_cycle;Signal;HPM_P1;HPM_P2
2023/03/17 00:00:45;;;;;;;23.73;15.20;;;;;;;11.29;100.00;97553.03;4887977;29;20481;-80
2023/03/17 00:03:35;;;;;;;24.13;15.15;;;;;;;11.45;100.00;97547.25;4887304;29;20052;-81
2023/03/17 00:06:26;;;;;;;24.65;15.02;;;;;;;11.60;100.00;97551.97;4888321;29;20044;-80
2023/03/17 00:09:16;;;;;;;27.90;14.70;;;;;;;11.53;100.00;97546.88;4883514;29;20127;-79
2023/03/17 00:12:00;;;;;;;22.98;14.52;;;;;;;11.43;100.00;97544.88;4887936;29;20407;-80
2023/03/17 00:14:45;;;;;;;24.55;13.93;;;;;;;11.21;100.00;97556.06;4887257;29;20064;-80
2023/03/17 00:17:30;;;;;;;22.58;13.18;;;;;;;11.11;100.00;97543.53;4884857;29;20108;-79
2023/03/17 00:20:27;;;;;;;22.98;13.73;;;;;;;11.11;100.00;97548.78;4913639;29;20463;-79
2023/03/17 00:23:15;;;;;;;19.55;12.52;;;;;;;10.99;100.00;97545.41;4884746;29;20047;-80
2023/03/17 00:26:00;;;;;;;23.58;13.10;;;;;;;10.86;100.00;97536.75;4885600;29;20511;-79
2023/03/17 00:28:45;;;;;;;21.40;13.52;;;;;;;10.78;100.00;97544.19;4911589;29;20129;-79
2023/03/17 00:31:29;;;;;;;21.67;13.18;;;;;;;10.77;100.00;97547.84;4887154;29;20567;-81
2023/03/17 00:34:17;;;;;;;24.20;13.65;;;;;;;10.67;100.00;97551.88;4882037;29;20185;-80
2023/03/17 00:37:03;;;;;;;18.77;13.20;;;;;;;10.63;100.00;97550.75;4884668;29;20042;-81
2023/03/17 00:39:48;;;;;;;25.30;13.30;;;;;;;10.58;100.00;97550.63;4908953;29;20109;-81
2023/03/17 00:42:32;;;;;;;21.83;13.32;;;;;;;10.48;100.00;97551.22;4884323;29;20091;-79
2023/03/17 00:45:22;;;;;;;23.63;13.50;;;;;;;10.47;100.00;97554.09;4885447;29;21462;-78
2023/03/17 00:48:15;;;;;;;24.75;13.32;;;;;;;10.36;100.00;97553.84;4886247;29;20043;-79
2023/03/17 00:51:02;;;;;;;25.80;13.95;;;;;;;10.38;100.00;97549.16;4886436;29;20437;-79
2023/03/17 00:53:47;;;;;;;24.20;14.18;;;;;;;10.29;100.00;97540.06;4886514;29;20051;-79
2023/03/17 00:56:31;;;;;;;28.33;14.73;;;;;;;10.28;100.00;97551.56;4882892;29;20048;-79
2023/03/17 00:59:29;;;;;;;30.70;14.52;;;;;;;10.35;100.00;97549.63;4884715;29;20146;-79
2023/03/17 01:02:14;;;;;;;24.27;14.73;;;;;;;10.23;100.00;97554.09;4884214;29;20071;-80
2023/03/17 01:04:59;;;;;;;25.95;13.07;;;;;;;10.23;100.00;97556.72;4887536;29;20079;-80
2023/03/17 01:07:51;;;;;;;24.58;13.90;;;;;;;10.30;100.00;97554.75;4884573;29;20055;-79
2023/03/17 01:10:36;;;;;;;25.98;14.20;;;;;;;10.30;100.00;97560.00;4885757;29;20560;-79
2023/03/17 01:13:20;;;;;;;23.75;13.68;;;;;;;10.24;100.00;97558.31;4891441;29;20400;-79
2023/03/17 01:16:08;;;;;;;26.33;13.35;;;;;;;10.19;100.00;97553.75;4886360;29;20091;-79
2023/03/17 01:18:53;;;;;;;22.73;13.75;;;;;;;10.13;100.00;97560.69;4882345;29;20100;-78
2023/03/17 01:21:37;;;;;;;27.63;13.65;;;;;;;10.11;100.00;97556.69;4887833;29;20047;-79
2023/03/17 01:24:21;;;;;;;24.95;14.13;;;;;;;10.09;100.00;97556.13;4888845;29;20091;-80
2023/03/17 01:27:06;;;;;;;27.10;14.80;;;;;;;10.14;100.00;97556.25;4913934;29;20087;-80
2023/03/17 01:29:54;;;;;;;26.00;14.98;;;;;;;10.21;100.00;97550.88;4886502;29;20483;-80
2023/03/17 01:32:38;;;;;;;28.58;14.75;;;;;;;10.09;100.00;97556.94;4883443;29;20557;-80
2023/03/17 01:35:23;;;;;;;25.30;13.52;;;;;;;10.24;100.00;97558.31;4882946;29;20067;-80
2023/03/17 01:38:09;;;;;;;27.02;14.73;;;;;;;10.25;100.00;97547.56;4884419;29;20055;-79
2023/03/17 01:40:53;;;;;;;26.80;14.75;;;;;;;10.37;100.00;97554.63;4885905;29;20047;-79
2023/03/17 01:43:37;;;;;;;27.88;14.93;;;;;;;10.42;100.00;97555.59;4887114;29;20097;-80
2023/03/17 01:46:30;;;;;;;32.60;15.38;;;;;;;10.54;100.00;97550.31;4880731;29;20048;-80
2023/03/17 01:49:14;;;;;;;26.98;14.50;;;;;;;10.63;100.00;97556.00;4880349;29;20048;-79
2023/03/17 01:52:07;;;;;;;27.83;15.18;;;;;;;10.74;100.00;97543.06;4885958;29;20186;-80
2023/03/17 01:54:55;;;;;;;28.25;14.50;;;;;;;10.81;100.00;97549.00;4880981;29;20048;-81
2023/03/17 01:57:53;;;;;;;29.40;15.15;;;;;;;10.71;100.00;97555.63;4882277;29;20579;-80
2023/03/17 02:00:38;;;;;;;32.42;15.18;;;;;;;10.57;100.00;97546.41;4883651;29;20112;-79
2023/03/17 02:03:22;;;;;;;29.85;14.80;;;;;;;10.66;100.00;97558.16;4884634;29;20186;-80
2023/03/17 02:06:08;;;;;;;27.27;16.55;;;;;;;10.67;100.00;97557.13;4883992;29;20106;-80
2023/03/17 02:08:52;;;;;;;28.58;16.20;;;;;;;10.50;100.00;97545.75;4885794;29;20096;-79
2023/03/17 02:11:37;;;;;;;27.25;13.63;;;;;;;10.46;100.00;97536.75;4886685;29;20113;-80
2023/03/17 02:14:21;;;;;;;25.73;14.05;;;;;;;10.38;100.00;97546.53;4881404;29;20044;-80
2023/03/17 02:17:05;;;;;;;31.85;15.20;;;;;;;10.17;100.00;97534.00;4884982;29;20067;-79
2023/03/17 02:19:49;;;;;;;32.08;13.93;;;;;;;10.19;100.00;97538.00;4880569;29;20048;-81
2023/03/17 02:22:33;;;;;;;28.90;13.75;;;;;;;10.15;100.00;97527.16;4882283;29;20554;-79
2023/03/17 02:25:19;;;;;;;23.23;12.77;;;;;;;10.07;100.00;97530.16;4881355;29;20114;-79
2023/03/17 02:28:12;;;;;;;22.85;13.70;;;;;;;10.04;100.00;97530.59;4882474;29;20595;-80
2023/03/17 02:30:56;;;;;;;24.05;13.38;;;;;;;10.09;100.00;97538.56;4888807;29;20055;-78
2023/03/17 02:33:41;;;;;;;29.85;13.65;;;;;;;10.15;100.00;97542.91;4886699;29;20471;-78
2023/03/17 02:36:26;;;;;;;29.27;14.10;;;;;;;10.35;100.00;97536.50;4886176;29;20048;-78
2023/03/17 02:39:12;;;;;;;29.23;15.13;;;;;;;10.42;100.00;97541.66;4885845;29;20059;-79
2023/03/17 02:41:57;;;;;;;26.65;14.05;;;;;;;10.45;100.00;97540.41;4884271;29;20088;-79
2023/03/17 02:44:41;;;;;;;33.22;15.02;;;;;;;10.63;100.00;97531.59;4888633;29;20533;-79
2023/03/17 02:47:26;;;;;;;28.50;15.07;;;;;;;10.74;100.00;97532.59;4888485;29;20047;-79
2023/03/17 02:50:17;;;;;;;28.20;14.13;;;;;;;10.75;100.00;97536.78;4889405;29;20043;-80
2023/03/17 02:53:01;;;;;;;26.83;13.38;;;;;;;10.76;100.00;97530.50;4892488;29;20043;-79
2023/03/17 02:55:45;;;;;;;31.27;14.40;;;;;;;10.73;100.00;97536.22;4911551;29;20097;-79
2023/03/17 02:58:29;;;;;;;29.05;14.65;;;;;;;10.79;100.00;97535.28;4890652;29;20387;-79
2023/03/17 03:01:14;;;;;;;30.13;14.48;;;;;;;10.80;100.00;97536.88;4886751;29;20471;-80
2023/03/17 03:03:58;;;;;;;24.10;13.73;;;;;;;10.82;100.00;97540.88;4885814;29;20052;-80
2023/03/17 03:06:43;;;;;;;27.05;13.52;;;;;;;10.83;100.00;97536.44;4886787;29;20082;-79
2023/03/17 03:09:28;;;;;;;28.90;14.80;;;;;;;11.00;100.00;97539.94;4885383;29;20100;-78
2023/03/17 03:12:12;;;;;;;25.50;14.80;;;;;;;11.10;100.00;97549.00;4912729;29;20423;-79
2023/03/17 03:14:57;;;;;;;31.58;15.80;;;;;;;11.08;100.00;97532.69;4882069;29;20100;-79
2023/03/17 03:17:41;;;;;;;30.27;14.82;;;;;;;11.09;100.00;97544.78;4885809;29;20052;-79
2023/03/17 03:20:25;;;;;;;24.65;14.02;;;;;;;11.08;100.00;97541.34;4888260;29;20108;-80
2023/03/17 03:23:10;;;;;;;24.85;14.10;;;;;;;11.05;100.00;97543.69;4914131;29;20077;-80
2023/03/17 03:25:55;;;;;;;27.20;14.27;;;;;;;11.06;100.00;97532.13;4889637;29;20047;-80
2023/03/17 03:28:39;;;;;;;21.95;13.38;;;;;;;10.83;100.00;97531.97;4885406;29;20051;-79
2023/03/17 03:31:23;;;;;;;27.95;14.32;;;;;;;10.84;100.00;97538.81;4900613;29;20324;-80
2023/03/17 03:34:07;;;;;;;21.25;12.63;;;;;;;10.80;100.00;97537.69;4884292;29;20081;-79
2023/03/17 03:36:51;;;;;;;22.67;12.85;;;;;;;10.93;100.00;97536.63;4884993;29;20055;-80
2023/03/17 03:39:36;;;;;;;22.50;12.77;;;;;;;10.94;100.00;97532.97;4886208;29;22879;-78
2023/03/17 03:42:20;;;;;;;26.75;12.32;;;;;;;10.88;100.00;97528.66;4884370;29;20144;-80
2023/03/17 03:45:05;;;;;;;24.33;12.43;;;;;;;10.86;100.00;97528.09;4893754;29;20054;-79
2023/03/17 03:47:50;;;;;;;22.33;12.00;;;;;;;10.71;100.00;97520.75;4884328;29;20526;-80
2023/03/17 03:50:34;;;;;;;24.33;11.75;;;;;;;10.68;100.00;97524.63;4891502;29;20048;-80
2023/03/17 03:53:18;;;;;;;18.85;11.65;;;;;;;10.54;100.00;97536.38;4886416;29;20047;-79
2023/03/17 03:56:02;;;;;;;19.15;11.02;;;;;;;10.42;100.00;97526.72;4886776;29;20108;-79
2023/03/17 03:58:47;;;;;;;19.55;10.95;;;;;;;10.32;100.00;97528.28;4886398;29;20056;-79
2023/03/17 04:01:31;;;;;;;22.88;10.90;;;;;;;10.41;100.00;97535.59;4912722;29;20201;-79
2023/03/17 04:04:15;;;;;;;21.50;11.02;;;;;;;10.39;100.00;97529.75;4886782;29;20056;-79
2023/03/17 04:06:59;;;;;;;17.52;10.48;;;;;;;10.39;100.00;97532.38;4882511;29;20060;-79
2023/03/17 04:09:42;;;;;;;22.33;11.50;;;;;;;10.35;100.00;97533.88;4886164;29;20060;-79
2023/03/17 04:12:26;;;;;;;26.33;12.55;;;;;;;10.11;100.00;97540.94;4886972;29;20502;-78
2023/03/17 04:15:15;;;;;;;20.55;10.93;;;;;;;10.22;100.00;97541.97;4886398;29;20055;-79
2023/03/17 04:17:59;;;;;;;21.17;11.90;;;;;;;10.12;100.00;97540.75;4886401;29;20048;-79
2023/03/17 04:20:43;;;;;;;21.63;11.25;;;;;;;10.15;100.00;97542.13;4884764;29;20117;-79
2023/03/17 04:23:27;;;;;;;28.63;13.43;;;;;;;10.21;100.00;97541.19;4891062;29;20128;-79
2023/03/17 04:26:12;;;;;;;26.52;13.93;;;;;;;10.37;100.00;97552.81;4889804;29;20092;-79
2023/03/17 04:28:57;;;;;;;30.27;13.55;;;;;;;10.48;100.00;97553.84;4912177;29;20048;-79
2023/03/17 04:31:42;;;;;;;26.50;12.73;;;;;;;10.64;100.00;97564.66;4889475;29;20048;-79
2023/03/17 04:34:26;;;;;;;30.90;13.77;;;;;;;10.69;100.00;97552.44;4887262;29;20103;-79
2023/03/17 04:37:10;;;;;;;26.30;12.88;;;;;;;10.68;100.00;97558.72;4885767;29;20060;-79
2023/03/17 04:39:54;;;;;;;26.95;14.30;;;;;;;10.64;100.00;97554.16;4886538;29;20095;-79
2023/03/17 04:42:39;;;;;;;27.35;14.18;;;;;;;10.65;100.00;97561.81;4884518;29;20507;-79
2023/03/17 04:45:23;;;;;;;27.95;13.82;;;;;;;10.67;100.00;97554.50;4885902;29;20101;-79
2023/03/17 04:48:07;;;;;;;27.52;13.15;;;;;;;10.68;100.00;97545.59;4886917;29;20048;-80
2023/03/17 04:50:51;;;;;;;25.55;13.75;;;;;;;10.61;100.00;97541.50;4879322;29;20051;-80
2023/03/17 04:53:35;;;;;;;27.45;14.27;;;;;;;10.53;100.00;97540.03;4888446;29;20147;-79
2023/03/17 04:56:19;;;;;;;27.27;12.90;;;;;;;10.55;100.00;97527.50;4911517;29;20149;-80
2023/03/17 04:59:04;;;;;;;22.13;13.20;;;;;;;10.65;100.00;97525.09;4888083;29;20071;-81
2023/03/17 05:01:48;;;;;;;22.70;12.48;;;;;;;10.77;100.00;97527.66;4885458;29;20460;-79
2023/03/17 05:04:32;;;;;;;28.23;13.15;;;;;;;10.65;100.00;97532.97;4889179;29;20079;-79
2023/03/17 05:07:16;;;;;;;25.27;13.63;;;;;;;10.58;100.00;97550.63;4885171;29;20047;-80
2023/03/17 05:10:01;;;;;;;29.50;13.93;;;;;;;10.52;100.00;97546.31;4888112;29;20508;-80
2023/03/17 05:12:45;;;;;;;26.02;13.70;;;;;;;10.53;100.00;97553.16;4885425;29;20040;-80
2023/03/17 05:15:30;;;;;;;23.98;13.55;;;;;;;10.61;100.00;97552.81;4885815;29;20400;-79
2023/03/17 05:18:15;;;;;;;26.60;13.57;;;;;;;10.60;100.00;97559.06;4885254;29;20056;-79
2023/03/17 05:21:00;;;;;;;28.67;13.25;;;;;;;10.59;100.00;97562.72;4883937;29;20105;-79
2023/03/17 05:23:45;;;;;;;25.48;13.25;;;;;;;10.56;100.00;97560.56;4881602;29;20574;-79
2023/03/17 05:26:28;;;;;;;26.20;13.10;;;;;;;10.52;100.00;97569.94;4885274;29;20048;-79
2023/03/17 05:29:13;;;;;;;27.70;13.93;;;;;;;10.49;100.00;97560.69;4886010;29;20128;-80
2023/03/17 05:31:57;;;;;;;26.60;13.77;;;;;;;10.50;100.00;97569.38;4883973;29;20452;-81
2023/03/17 05:34:42;;;;;;;25.45;14.30;;;;;;;10.50;100.00;97572.00;4883289;29;20094;-79
2023/03/17 05:37:26;;;;;;;23.23;13.73;;;;;;;10.46;100.00;97568.22;4888203;29;20066;-79
2023/03/17 05:40:11;;;;;;;30.58;14.38;;;;;;;10.31;100.00;97561.59;4888776;29;20516;-80
2023/03/17 05:42:56;;;;;;;23.20;12.95;;;;;;;10.31;100.00;97566.84;4883894;29;20580;-79
2023/03/17 05:45:40;;;;;;;26.15;14.40;;;;;;;10.31;100.00;97572.09;4909738;29;20060;-78
2023/03/17 05:48:25;;;;;;;30.25;14.13;;;;;;;10.24;100.00;97579.28;4906890;29;20050;-79
2023/03/17 05:51:09;;;;;;;29.98;13.77;;;;;;;10.17;100.00;97589.06;4883225;29;20044;-79
2023/03/17 05:53:53;;;;;;;29.10;14.05;;;;;;;10.20;100.00;97592.03;4913032;29;20104;-79
2023/03/17 05:56:37;;;;;;;30.73;14.32;;;;;;;10.17;100.00;97582.00;4884261;29;20531;-79
2023/03/17 05:59:21;;;;;;;29.85;13.90;;;;;;;10.18;100.00;97580.16;4882824;29;20055;-79
2023/03/17 06:02:06;;;;;;;25.55;12.90;;;;;;;10.19;100.00;97590.44;4881267;29;20538;-80
2023/03/17 06:04:50;;;;;;;32.03;13.95;;;;;;;10.12;100.00;97595.78;4887859;29;20562;-79
2023/03/17 06:07:35;;;;;;;27.08;13.80;;;;;;;10.12;100.00;97598.41;4892304;29;20075;-81
2023/03/17 06:10:19;;;;;;;29.15;13.68;;;;;;;10.24;100.00;97598.41;4890846;29;20074;-82
2023/03/17 06:13:03;;;;;;;24.88;13.32;;;;;;;10.38;100.00;97598.97;4890517;29;20393;-80
2023/03/17 06:15:51;;;;;;;32.83;15.07;;;;;;;10.45;100.00;97598.13;4882499;29;20059;-80
2023/03/17 06:18:35;;;;;;;25.63;12.77;;;;;;;10.51;100.00;97605.06;4891087;29;20060;-79
2023/03/17 06:21:19;;;;;;;32.38;15.75;;;;;;;10.37;100.00;97597.38;4894159;29;20412;-78
2023/03/17 06:24:04;;;;;;;22.85;13.98;;;;;;;10.40;100.00;97591.72;4885769;29;20057;-79
2023/03/17 06:26:48;;;;;;;26.20;13.77;;;;;;;10.32;100.00;97606.97;4895651;29;20133;-79
2023/03/17 06:29:32;;;;;;;31.02;14.52;;;;;;;10.12;100.00;97601.03;4890713;29;20047;-79
2023/03/17 06:32:16;;;;;;;32.40;13.82;;;;;;;10.19;100.00;97598.31;4913001;29;20055;-78
2023/03/17 06:35:01;;;;;;;25.45;13.90;;;;;;;10.15;100.00;97582.22;4884085;29;20051;-79
2023/03/17 06:37:45;;;;;;;26.88;13.32;;;;;;;10.08;100.00;97586.78;4885157;29;20448;-80
2023/03/17 06:40:31;;;;;;;21.83;12.85;;;;;;;10.08;100.00;97583.34;4885404;29;20124;-80
2023/03/17 06:43:18;;;;;;;24.60;13.02;;;;;;;9.97;100.00;97592.81;4889469;29;20107;-80
2023/03/17 06:46:02;;;;;;;28.05;12.88;;;;;;;10.08;100.00;97593.84;4888534;29;20499;-80
2023/03/17 06:48:46;;;;;;;21.20;12.65;;;;;;;10.13;100.00;97600.00;4887868;29;20048;-81
2023/03/17 06:51:31;;;;;;;21.30;12.98;;;;;;;10.12;100.00;97603.66;4888041;29;20043;-80
2023/03/17 06:54:17;;;;;;;24.95;12.98;;;;;;;10.18;100.00;97622.94;4883723;29;20100;-80
2023/03/17 06:57:01;;;;;;;24.50;12.68;;;;;;;10.12;100.00;97622.00;4885973;29;20051;-81
2023/03/17 06:59:45;;;;;;;25.15;13.30;;;;;;;10.11;100.00;97625.66;4885447;29;20725;-79
2023/03/17 07:02:29;;;;;;;26.13;14.80;;;;;;;10.20;100.00;97620.06;4884290;29;20052;-78
2023/03/17 07:05:14;;;;;;;24.35;12.75;;;;;;;10.21;100.00;97619.03;4911150;29;20067;-79
2023/03/17 07:07:58;;;;;;;27.90;14.25;;;;;;;10.30;100.00;97607.22;4883569;29;20078;-80
2023/03/17 07:10:42;;;;;;;33.75;16.20;;;;;;;10.31;100.00;97623.72;4888061;29;20562;-80
2023/03/17 07:13:26;;;;;;;34.97;14.82;;;;;;;10.39;100.00;97639.13;4890368;29;20463;-78
2023/03/17 07:16:13;;;;;;;29.27;12.18;;;;;;;10.40;100.00;97643.38;4917152;29;20059;-80
2023/03/17 07:18:58;;;;;;;28.48;12.98;;;;;;;10.64;100.00;97625.81;4902773;29;20059;-79
2023/03/17 07:21:42;;;;;;;30.67;12.70;;;;;;;10.80;100.00;97628.75;4907703;29;20064;-79
2023/03/17 07:24:26;;;;;;;25.85;12.70;;;;;;;10.99;100.00;97621.53;4912774;29;20100;-80
2023/03/17 07:27:10;;;;;;;27.45;11.88;;;;;;;11.17;100.00;97644.19;4903777;29;20091;-80
2023/03/17 07:29:54;;;;;;;20.48;10.88;;;;;;;11.36;100.00;97644.84;4912767;29;20038;-80
2023/03/17 07:32:38;;;;;;;20.58;10.48;;;;;;;11.44;100.00;97654.19;4903259;29;20176;-80
2023/03/17 07:35:22;;;;;;;21.98;10.00;;;;;;;11.61;100.00;97648.19;4911960;29;20048;-79
2023/03/17 07:38:06;;;;;;;21.63;10.75;;;;;;;11.67;100.00;97636.72;4893122;29;20081;-80
2023/03/17 07:40:51;;;;;;;27.13;11.60;;;;;;;11.61;100.00;97632.41;4915642;29;20398;-80
2023/03/17 07:43:37;;;;;;;26.30;11.38;;;;;;;11.60;100.00;97628.19;4909537;29;20120;-81
2023/03/17 07:46:21;;;;;;;23.58;11.60;;;;;;;11.72;100.00;97639.44;4901166;29;20392;-79
2023/03/17 07:49:06;;;;;;;20.88;10.90;;;;;;;11.55;100.00;97639.41;4903248;29;20050;-80
2023/03/17 07:51:50;;;;;;;17.80;11.45;;;;;;;11.43;100.00;97644.72;4900631;29;20064;-80
2023/03/17 07:54:35;;;;;;;20.45;10.73;;;;;;;11.57;100.00;97656.50;4903581;29;20060;-80
2023/03/17 07:57:20;;;;;;;20.17;10.70;;;;;;;11.61;100.00;97650.81;4916727;29;20511;-79
2023/03/17 08:00:09;;;;;;;21.38;10.80;;;;;;;11.99;100.00;97652.78;4908046;29;20571;-79
2023/03/17 08:02:55;;;;;;;26.42;10.88;;;;;;;12.30;100.00;97652.50;4899382;29;20107;-79
2023/03/17 08:05:39;;;;;;;23.73;9.93;;;;;;;12.36;100.00;97648.13;4907345;29;20043;-79
2023/03/17 08:08:24;;;;;;;19.20;8.75;;;;;;;12.53;100.00;97661.25;4903177;29;20112;-80
2023/03/17 08:11:08;;;;;;;16.63;8.95;;;;;;;12.57;100.00;97667.63;4916998;29;20106;-81
2023/03/17 08:13:52;;;;;;;17.83;9.10;;;;;;;12.72;100.00;97661.78;4910813;29;20064;-83
2023/03/17 08:16:36;;;;;;;20.30;9.23;;;;;;;12.77;100.00;97653.16;4889923;29;20059;-83
2023/03/17 08:19:23;;;;;;;14.88;7.55;;;;;;;13.00;100.00;97650.31;4880947;29;20048;-80
2023/03/17 08:22:07;;;;;;;12.18;7.45;;;;;;;13.31;100.00;97649.88;4884493;29;20093;-81
2023/03/17 08:24:51;;;;;;;14.48;7.88;;;;;;;13.50;100.00;97647.72;4909255;29;20074;-81
2023/03/17 08:27:35;;;;;;;19.58;7.88;;;;;;;13.35;100.00;97666.78;4889120;29;20077;-81
2023/03/17 08:30:19;;;;;;;18.40;7.80;;;;;;;12.93;100.00;97662.06;4885814;29;20059;-86
2023/03/17 08:33:04;;;;;;;22.17;8.38;;;;;;;12.83;100.00;97660.09;4886424;29;20044;-80
2023/03/17 08:35:48;;;;;;;21.77;8.63;;;;;;;12.85;100.00;97660.66;4886950;29;20519;-87
2023/03/17 08:38:32;;;;;;;16.42;7.93;;;;;;;12.88;100.00;97662.78;4914746;29;20096;-83
2023/03/17 08:41:20;;;;;;;17.83;8.60;;;;;;;12.92;100.00;97655.97;4914418;29;20120;-85
2023/03/17 08:44:04;;;;;;;13.23;8.80;;;;;;;13.10;100.00;97659.38;4885261;29;20124;-84
2023/03/17 08:46:50;;;;;;;15.93;8.10;;;;;;;13.14;100.00;97652.56;4889287;29;20403;-85
2023/03/17 08:49:35;;;;;;;19.02;8.32;;;;;;;13.11;100.00;97658.31;4885003;29;20043;-85
2023/03/17 08:52:19;;;;;;;15.73;7.82;;;;;;;12.88;100.00;97654.88;4911861;29;20047;-83
2023/03/17 08:55:04;;;;;;;18.65;8.38;;;;;;;12.86;100.00;97655.13;4883278;29;20039;-86
2023/03/17 08:57:48;;;;;;;14.88;7.38;;;;;;;13.00;100.00;97660.84;4885160;29;20112;-84
2023/03/17 09:00:32;;;;;;;17.05;8.27;;;;;;;13.23;100.00;97666.91;4883018;29;20165;-84
2023/03/17 09:03:16;;;;;;;18.02;8.90;;;;;;;13.36;100.00;97657.03;4880320;29;20571;-83
2023/03/17 09:06:03;;;;;;;19.55;8.80;;;;;;;13.49;100.00;97663.81;4889150;29;20177;-86
2023/03/17 09:08:53;;;;;;;15.65;9.52;;;;;;;13.65;100.00;97657.63;4910268;29;20399;-87
2023/03/17 09:11:39;;;;;;;16.05;8.30;;;;;;;13.63;100.00;97658.94;4911712;29;20464;-85
2023/03/17 09:14:23;;;;;;;20.23;8.90;;;;;;;13.72;100.00;97665.34;4913876;29;20076;-88
2023/03/17 09:17:08;;;;;;;20.95;10.10;;;;;;;13.87;100.00;97672.63;4887460;29;20168;-87
2023/03/17 09:19:52;;;;;;;25.48;12.88;;;;;;;14.02;100.00;97663.22;4891735;29;20559;-86
2023/03/17 09:22:37;;;;;;;26.17;9.68;;;;;;;13.97;100.00;97666.66;4895737;29;20052;-85
2023/03/17 09:25:21;;;;;;;16.50;8.35;;;;;;;13.83;100.00;97677.59;4911031;29;20052;-86
2023/03/17 09:28:06;;;;;;;20.30;7.95;;;;;;;13.62;100.00;97681.06;4913818;29;20451;-86
2023/03/17 09:30:56;;;;;;;12.63;7.80;;;;;;;13.55;100.00;97674.13;4886754;29;21687;-86
2023/03/17 09:33:40;;;;;;;18.45;6.55;;;;;;;13.67;100.00;97667.94;4887871;29;21019;-85
2023/03/17 09:36:24;;;;;;;15.48;7.35;;;;;;;13.47;100.00;97682.50;4913801;29;20404;-84
2023/03/17 09:39:08;;;;;;;17.95;7.75;;;;;;;13.61;100.00;97695.31;4884647;29;20408;-85
2023/03/17 09:42:14;;;;;;;15.05;6.13;;;;;;;13.88;100.00;97689.22;4888012;29;20047;-85
2023/03/17 09:45:05;;;;;;;15.43;6.43;;;;;;;14.05;100.00;97704.94;4886838;29;20387;-85
2023/03/17 09:48:08;;;;;;;15.63;6.90;;;;;;;13.98;100.00;97702.53;4885510;29;20491;-83
2023/03/17 09:51:00;;;;;;;15.27;7.10;;;;;;;13.93;100.00;97707.72;4888201;29;20129;-87
2023/03/17 09:54:03;;;;;;;15.57;5.10;;;;;;;14.72;100.00;97713.44;4886193;29;20083;-87
2023/03/17 09:56:56;;;;;;;15.52;6.22;;;;;;;14.32;100.00;97698.84;4886967;29;20392;-87
2023/03/17 09:59:46;;;;;;;12.55;5.00;;;;;;;14.35;100.00;97700.97;4890197;29;20406;-86
2023/03/17 10:02:36;;;;;;;14.18;5.15;;;;;;;14.55;100.00;97689.78;4884938;29;20128;-86
2023/03/17 10:05:26;;;;;;;16.20;4.60;;;;;;;14.71;100.00;97690.72;4911220;29;20520;-87
2023/03/17 10:08:23;;;;;;;14.23;4.85;;;;;;;14.44;100.00;97688.91;4886549;29;20119;-85
2023/03/17 10:11:39;;;;;;;15.07;5.28;;;;;;;14.09;100.00;97698.91;4917360;29;20048;-86
2023/03/17 10:14:37;;;;;;;10.85;4.53;;;;;;;14.11;100.00;97702.09;4886697;29;20104;-85
2023/03/17 10:17:27;;;;;;;17.45;4.88;;;;;;;14.36;100.00;97706.03;4894247;29;20087;-86
2023/03/17 10:20:14;;;;;;;11.52;4.38;;;;;;;14.78;100.00;97706.34;4896726;29;20047;-86
2023/03/17 10:23:12;;;;;;;10.95;4.53;;;;;;;15.06;100.00;97699.09;4897900;29;20043;-87
2023/03/17 10:26:04;;;;;;;11.52;4.03;;;;;;;15.19;100.00;97700.47;4910268;29;20474;-86
2023/03/17 10:28:49;;;;;;;15.52;4.43;;;;;;;15.51;100.00;97689.75;4896667;29;20055;-87
2023/03/17 10:31:34;;;;;;;15.00;4.32;;;;;;;15.46;100.00;97683.66;4904751;29;20045;-86
2023/03/17 10:34:22;;;;;;;13.18;4.72;;;;;;;15.99;100.00;97686.19;4896315;29;20047;-86
2023/03/17 10:37:12;;;;;;;15.27;3.70;;;;;;;15.93;100.00;97681.94;4910402;29;20448;-86
2023/03/17 10:39:58;;;;;;;15.15;3.83;;;;;;;16.36;100.00;97685.13;4897747;29;20463;-86
2023/03/17 10:42:50;;;;;;;11.35;4.20;;;;;;;15.98;100.00;97687.25;4896454;29;20112;-86
2023/03/17 10:45:39;;;;;;;14.85;4.72;;;;;;;16.04;100.00;97683.53;4896436;29;20060;-83
2023/03/17 10:48:24;;;;;;;10.65;3.35;;;;;;;15.89;100.00;97689.59;4897826;29;20052;-84
2023/03/17 10:51:10;;;;;;;15.10;4.03;;;;;;;15.88;100.00;97698.56;4914648;29;20115;-85
2023/03/17 10:53:54;;;;;;;15.82;5.65;;;;;;;15.46;100.00;97694.25;4894512;29;20059;-86
2023/03/17 10:56:41;;;;;;;15.10;3.95;;;;;;;15.24;100.00;97693.34;4909180;29;20051;-86
2023/03/17 10:59:31;;;;;;;13.73;4.68;;;;;;;15.21;100.00;97691.22;4913664;29;20092;-86
2023/03/17 11:02:29;;;;;;;10.18;4.00;;;;;;;15.41;100.00;97695.00;4924653;29;20135;-84
2023/03/17 11:05:26;;;;;;;13.07;3.72;;;;;;;15.28;100.00;97681.22;4912489;29;20051;-85
2023/03/17 11:08:18;;;;;;;13.18;3.85;;;;;;;15.01;100.00;97672.66;4908868;29;20051;-87
2023/03/17 11:11:09;;;;;;;11.57;3.72;;;;;;;14.79;100.00;97671.72;4905022;29;20046;-86
2023/03/17 11:14:12;;;;;;;15.65;3.90;;;;;;;15.02;100.00;97679.50;4901229;29;20055;-86
2023/03/17 11:17:02;;;;;;;11.38;3.42;;;;;;;14.83;100.00;97662.25;4896754;29;20112;-86
2023/03/17 11:20:05;;;;;;;13.02;3.15;;;;;;;14.87;100.00;97673.09;4900693;29;20107;-85
2023/03/17 11:23:04;;;;;;;11.05;3.10;;;;;;;14.71;100.00;97669.59;4926328;29;20047;-86
2023/03/17 11:26:00;;;;;;;14.20;3.15;;;;;;;14.56;100.00;97662.34;4919321;29;20128;-88
2023/03/17 11:29:08;;;;;;;7.47;2.63;;;;;;;14.60;100.00;97673.16;4890559;29;20055;-87
2023/03/17 11:32:59;;;;;;;11.57;2.55;;;;;;;14.79;100.00;97674.38;4885790;29;20419;-89
2023/03/17 11:36:27;;;;;;;10.23;3.05;;;;;;;14.74;100.00;97678.81;4923235;29;20590;-87
2023/03/17 11:39:27;;;;;;;10.48;2.40;;;;;;;15.05;100.00;97689.56;4890378;29;20104;-87
2023/03/17 11:42:11;;;;;;;14.80;3.08;;;;;;;15.69;100.00;97683.19;4891908;29;20092;-86
2023/03/17 11:45:03;;;;;;;;;;;;;;;16.12;100.00;97684.84;4884173;29;20064;-83
2023/03/17 11:47:53;;;;;;;12.65;3.10;;;;;;;16.08;100.00;97676.63;4913432;29;19934;-87
2023/03/17 11:50:50;;;;;;;7.20;1.85;;;;;;;15.97;100.00;97675.84;4891561;29;20059;-88
2023/03/17 11:54:12;;;;;;;13.52;3.13;;;;;;;15.78;100.00;97680.84;4891159;29;20072;-88
2023/03/17 11:57:00;;;;;;;12.70;2.67;;;;;;;15.73;100.00;97688.75;4916660;29;20047;-89
2023/03/17 12:00:00;;;;;;;15.25;2.78;;;;;;;15.63;100.00;97673.66;4886785;29;20052;-88
2023/03/17 12:02:57;;;;;;;7.53;2.50;;;;;;;15.49;100.00;97668.06;4889153;29;20129;-89
2023/03/17 12:05:44;;;;;;;12.25;2.50;;;;;;;15.63;100.00;97683.44;4889650;29;20043;-89
2023/03/17 12:09:15;;;;;;;8.80;2.45;;;;;;;15.78;100.00;97685.31;4890539;29;20079;-88
2023/03/17 12:12:05;;;;;;;8.80;2.63;;;;;;;15.94;100.00;97672.94;4918516;29;20056;-90
2023/03/17 12:14:52;;;;;;;7.93;2.53;;;;;;;16.27;100.00;97674.28;4916326;29;20044;-89
2023/03/17 12:18:08;;;;;;;9.77;3.13;;;;;;;16.48;100.00;97681.41;4891586;29;20055;-89
2023/03/17 12:21:13;;;;;;;7.22;2.92;;;;;;;17.13;100.00;97672.81;4884490;29;20566;-87
2023/03/17 12:24:03;;;;;;;9.30;3.05;;;;;;;18.03;100.00;97678.16;4916992;29;20044;-90
2023/03/17 12:27:29;;;;;;;9.15;3.53;;;;;;;18.53;100.00;97682.56;4916835;29;20072;-89
2023/03/17 12:30:23;;;;;;;12.38;3.30;;;;;;;18.40;100.00;97676.81;4882479;29;20090;-88
2023/03/17 12:33:16;;;;;;;;;;;;;;;18.36;100.00;97683.75;4895531;29;20112;-89
2023/03/17 12:36:04;;;;;;;8.73;3.10;;;;;;;18.08;100.00;97667.53;4903462;29;19926;-89
2023/03/17 12:39:04;;;;;;;11.75;3.00;;;;;;;18.24;100.00;97676.16;4888010;29;20051;-88
2023/03/17 12:41:55;;;;;;;9.68;2.47;;;;;;;18.42;100.00;97674.66;4878974;29;20048;-88
2023/03/17 12:44:59;;;;;;;7.72;2.80;;;;;;;18.42;100.00;97672.00;4891498;29;20124;-89